Terminal Aerodrome Forecast
Issued by NWS

Home | Current Version | Previous Version | Text Only | Print | Product List | Glossary On
Versions: 1 2 3 4 5 6 7 8 9 10 11 12 13 14 15 16 17 18
000
FTUS41 KPHI 211100
TAFPNE
TAF
KPNE 211133Z 2112/2212 30003KT P6SM SCT035 OVC110
     FM211500 33006KT P6SM BKN035 OVC110
     FM220000 VRB02KT P6SM SCT035 BKN250=

USA.gov is the U.S. government's official web portal to all federal, state and local government web resources and services.